createdAt,value
2018-12-12T00:00:25.713Z,1007.97
2018-12-12T00:01:25.699Z,1008.00
2018-12-12T00:02:25.683Z,1008.04
2018-12-12T00:03:25.668Z,1008.00
2018-12-12T00:04:25.653Z,1007.98
2018-12-12T00:05:25.638Z,1007.94
2018-12-12T00:06:25.626Z,1008.00
2018-12-12T00:07:25.613Z,1008.00
2018-12-12T00:08:25.596Z,1008.02
2018-12-12T00:09:25.579Z,1008.04
2018-12-12T00:10:25.566Z,1008.03
2018-12-12T00:11:25.612Z,1008.05
2018-12-12T00:12:25.541Z,1008.02
2018-12-12T00:13:25.521Z,1008.07
2018-12-12T00:14:25.518Z,1008.05
2018-12-12T00:15:25.492Z,1008.03
2018-12-12T00:16:25.479Z,1008.04
2018-12-12T00:17:25.463Z,1008.02
2018-12-12T00:18:25.505Z,1008.04
2018-12-12T00:19:25.437Z,1008.01
2018-12-12T00:20:25.421Z,1008.00
2018-12-12T00:21:25.408Z,1008.00
2018-12-12T00:22:25.393Z,1007.98
2018-12-12T00:23:25.378Z,1007.97
2018-12-12T00:24:25.378Z,1007.97
2018-12-12T00:25:25.350Z,1007.94
2018-12-12T00:26:25.336Z,1007.99
2018-12-12T00:27:25.325Z,1007.96
2018-12-12T00:28:25.308Z,1007.95
2018-12-12T00:29:25.293Z,1007.93
2018-12-12T00:30:25.281Z,1007.93
2018-12-12T00:31:25.268Z,1007.92
2018-12-12T00:32:25.251Z,1007.88
2018-12-12T00:33:25.237Z,1007.89
2018-12-12T00:34:25.224Z,1007.88
2018-12-12T00:35:25.209Z,1007.85
2018-12-12T00:36:25.195Z,1007.85
2018-12-12T00:37:25.181Z,1007.82
2018-12-12T00:38:25.167Z,1007.82
2018-12-12T00:39:25.154Z,1007.86
2018-12-12T00:40:25.136Z,1007.83
2018-12-12T00:41:25.123Z,1007.82
2018-12-12T00:42:25.111Z,1007.84
2018-12-12T00:43:25.111Z,1007.85
2018-12-12T00:44:25.080Z,1007.88
2018-12-12T00:45:25.067Z,1007.83
2018-12-12T00:46:25.053Z,1007.82
2018-12-12T00:47:25.038Z,1007.87
2018-12-12T00:48:25.028Z,1007.91
2018-12-12T00:49:25.013Z,1007.94
2018-12-12T00:50:24.996Z,1007.93
2018-12-12T00:51:24.981Z,1007.93
2018-12-12T00:52:24.967Z,1007.92
2018-12-12T00:53:24.954Z,1007.95
2018-12-12T00:54:24.941Z,1007.91
2018-12-12T00:55:24.926Z,1007.90
2018-12-12T00:56:24.913Z,1007.91
2018-12-12T00:57:24.895Z,1007.94
2018-12-12T00:58:24.882Z,1007.97
2018-12-12T00:59:24.868Z,1007.98
2018-12-12T01:00:24.911Z,1007.94
2018-12-12T01:01:24.840Z,1007.91
2018-12-12T01:02:24.824Z,1007.92
2018-12-12T01:03:24.811Z,1007.93
2018-12-12T01:04:24.795Z,1007.93
2018-12-12T01:05:24.783Z,1007.89
2018-12-12T01:06:24.769Z,1007.93
2018-12-12T01:07:24.754Z,1007.93
2018-12-12T01:08:24.740Z,1007.94
2018-12-12T01:09:24.724Z,1007.95
2018-12-12T01:10:24.714Z,1008.00
2018-12-12T01:11:24.698Z,1008.03
2018-12-12T01:12:24.683Z,1008.02
2018-12-12T01:13:24.668Z,1008.04
2018-12-12T01:14:24.907Z,1008.07
2018-12-12T01:15:24.640Z,1008.06
2018-12-12T01:16:24.625Z,1008.03
2018-12-12T01:17:24.612Z,1008.04
2018-12-12T01:18:24.601Z,1008.03
2018-12-12T01:19:24.584Z,1008.03
2018-12-12T01:20:24.569Z,1008.01
2018-12-12T01:21:24.555Z,1007.99
2018-12-12T01:22:24.542Z,1008.01
2018-12-12T01:23:24.529Z,1008.06
2018-12-12T01:24:24.513Z,1008.05
2018-12-12T01:25:24.499Z,1008.04
2018-12-12T01:26:24.486Z,1008.03
2018-12-12T01:27:24.477Z,1008.01
2018-12-12T01:28:24.457Z,1008.04
2018-12-12T01:29:24.444Z,1008.04
2018-12-12T01:30:24.429Z,1008.07
2018-12-12T01:31:24.415Z,1008.03
2018-12-12T01:32:24.400Z,1008.07
2018-12-12T01:33:24.389Z,1008.04
2018-12-12T01:34:24.372Z,1008.03
2018-12-12T01:35:24.359Z,1008.04
2018-12-12T01:36:24.344Z,1008.03
2018-12-12T01:37:24.329Z,1008.00
2018-12-12T01:38:24.315Z,1008.01
2018-12-12T01:39:24.302Z,1008.03
2018-12-12T01:40:24.288Z,1008.04
2018-12-12T01:41:24.277Z,1008.05
2018-12-12T01:42:24.259Z,1008.04
2018-12-12T01:43:24.245Z,1008.05
2018-12-12T01:44:24.483Z,1008.02
2018-12-12T01:45:24.216Z,1008.04
2018-12-12T01:46:24.209Z,1008.02
2018-12-12T01:47:24.193Z,1008.01
2018-12-12T01:48:24.175Z,1008.03
2018-12-12T01:49:24.209Z,1008.06
2018-12-12T01:50:24.146Z,1008.12
2018-12-12T01:51:24.131Z,1008.10
2018-12-12T01:52:24.123Z,1008.14
2018-12-12T01:53:24.103Z,1008.14
2018-12-12T01:54:24.895Z,1008.15
2018-12-12T01:55:24.074Z,1008.19
2018-12-12T01:56:24.059Z,1008.19
2018-12-12T01:57:24.047Z,1008.19
2018-12-12T01:58:24.033Z,1008.17
2018-12-12T01:59:24.017Z,1008.18
2018-12-12T02:00:24.003Z,1008.21
2018-12-12T02:01:23.989Z,1008.19
2018-12-12T02:02:23.975Z,1008.19
2018-12-12T02:03:23.959Z,1008.19
2018-12-12T02:04:23.944Z,1008.21
2018-12-12T02:05:23.932Z,1008.19
2018-12-12T02:06:23.917Z,1008.18
2018-12-12T02:07:23.899Z,1008.22
2018-12-12T02:08:23.883Z,1008.22
2018-12-12T02:09:23.869Z,1008.24
2018-12-12T02:10:23.854Z,1008.21
2018-12-12T02:11:23.847Z,1008.18
2018-12-12T02:12:23.824Z,1008.24
2018-12-12T02:13:23.809Z,1008.23
2018-12-12T02:14:23.793Z,1008.16
2018-12-12T02:15:24.029Z,1008.19
2018-12-12T02:16:23.762Z,1008.19
2018-12-12T02:17:23.751Z,1008.17
2018-12-12T02:18:23.738Z,1008.20
2018-12-12T02:19:23.717Z,1008.20
2018-12-12T02:20:23.756Z,1008.17
2018-12-12T02:21:23.687Z,1008.15
2018-12-12T02:22:23.672Z,1008.13
2018-12-12T02:23:23.656Z,1008.07
2018-12-12T02:24:23.643Z,1008.07
2018-12-12T02:25:23.626Z,1008.11
2018-12-12T02:26:23.613Z,1008.04
2018-12-12T02:27:23.595Z,1008.06
2018-12-12T02:28:23.579Z,1008.01
2018-12-12T02:29:23.565Z,1007.97
2018-12-12T02:30:23.550Z,1008.01
2018-12-12T02:31:23.533Z,1007.97
2018-12-12T02:32:23.518Z,1008.02
2018-12-12T02:33:23.546Z,1007.95
2018-12-12T02:34:23.490Z,1007.95
2018-12-12T02:35:23.474Z,1007.98
2018-12-12T02:36:23.457Z,1007.94
2018-12-12T02:37:23.443Z,1007.99
2018-12-12T02:38:23.427Z,1007.96
2018-12-12T02:39:23.413Z,1007.95
2018-12-12T02:40:23.395Z,1007.97
2018-12-12T02:41:23.383Z,1008.01
2018-12-12T02:42:23.365Z,1008.03
2018-12-12T02:43:23.354Z,1008.05
2018-12-12T02:44:23.338Z,1008.01
2018-12-12T02:45:23.571Z,1008.01
2018-12-12T02:46:23.314Z,1008.00
2018-12-12T02:47:23.492Z,1008.00
2018-12-12T02:48:23.274Z,1008.02
2018-12-12T02:49:23.260Z,1008.02
2018-12-12T02:50:23.247Z,1008.04
2018-12-12T02:51:23.229Z,1008.02
2018-12-12T02:52:23.213Z,1008.04
2018-12-12T02:53:23.199Z,1008.06
2018-12-12T02:54:23.188Z,1008.09
2018-12-12T02:55:23.170Z,1008.08
2018-12-12T02:56:23.151Z,1008.10
2018-12-12T02:57:23.138Z,1008.11
2018-12-12T02:58:23.121Z,1008.18
2018-12-12T02:59:23.108Z,1008.16
2018-12-12T03:00:24.141Z,1008.19
2018-12-12T03:01:23.075Z,1008.20
2018-12-12T03:02:23.062Z,1008.19
2018-12-12T03:03:23.045Z,1008.24
2018-12-12T03:04:23.029Z,1008.26
2018-12-12T03:05:23.022Z,1008.28
2018-12-12T03:06:22.999Z,1008.30
2018-12-12T03:07:22.985Z,1008.28
2018-12-12T03:08:22.968Z,1008.33
2018-12-12T03:09:22.959Z,1008.36
2018-12-12T03:10:22.940Z,1008.32
2018-12-12T03:11:22.928Z,1008.34
2018-12-12T03:12:22.909Z,1008.30
2018-12-12T03:13:22.906Z,1008.34
2018-12-12T03:14:22.879Z,1008.32
2018-12-12T03:15:22.871Z,1008.35
2018-12-12T03:16:22.847Z,1008.35
2018-12-12T03:17:22.833Z,1008.35
2018-12-12T03:18:22.819Z,1008.36
2018-12-12T03:19:22.802Z,1008.35
2018-12-12T03:20:22.786Z,1008.32
2018-12-12T03:21:22.774Z,1008.33
2018-12-12T03:22:22.757Z,1008.31
2018-12-12T03:23:22.742Z,1008.25
2018-12-12T03:24:22.727Z,1008.26
2018-12-12T03:25:22.712Z,1008.24
2018-12-12T03:26:22.696Z,1008.23
2018-12-12T03:27:22.686Z,1008.25
2018-12-12T03:28:22.668Z,1008.21
2018-12-12T03:29:22.657Z,1008.21
2018-12-12T03:30:22.637Z,1008.25
2018-12-12T03:31:22.625Z,1008.28
2018-12-12T03:32:22.608Z,1008.26
2018-12-12T03:33:22.589Z,1008.28
2018-12-12T03:34:22.575Z,1008.24
2018-12-12T03:35:22.572Z,1008.20
2018-12-12T03:36:22.544Z,1008.15
2018-12-12T03:37:22.530Z,1008.10
2018-12-12T03:38:22.514Z,1008.14
2018-12-12T03:39:22.499Z,1008.09
2018-12-12T03:40:22.484Z,1008.10
2018-12-12T03:41:22.468Z,1008.11
2018-12-12T03:42:22.454Z,1008.05
2018-12-12T03:43:22.439Z,1008.07
2018-12-12T03:44:22.431Z,1008.11
2018-12-12T03:45:22.408Z,1008.11
2018-12-12T03:46:22.393Z,1008.11
2018-12-12T03:47:22.378Z,1008.08
2018-12-12T03:48:22.362Z,1008.06
2018-12-12T03:49:22.352Z,1008.05
2018-12-12T03:50:22.336Z,1008.03
2018-12-12T03:51:22.376Z,1008.03
2018-12-12T03:52:22.302Z,1007.98
2018-12-12T03:53:22.287Z,1008.00
2018-12-12T03:54:22.274Z,1008.00
2018-12-12T03:55:22.258Z,1008.04
2018-12-12T03:56:22.243Z,1008.03
2018-12-12T03:57:22.230Z,1008.03
2018-12-12T03:58:22.213Z,1008.01
2018-12-12T03:59:22.198Z,1007.97
2018-12-12T04:00:22.181Z,1008.00
2018-12-12T04:01:22.165Z,1008.01
2018-12-12T04:02:22.400Z,1008.03
2018-12-12T04:03:22.135Z,1008.05
2018-12-12T04:04:22.120Z,1008.05
2018-12-12T04:05:22.105Z,1008.03
2018-12-12T04:06:22.089Z,1008.01
2018-12-12T04:07:22.074Z,1008.03
2018-12-12T04:08:22.057Z,1008.01
2018-12-12T04:09:22.045Z,1008.02
2018-12-12T04:10:22.037Z,1008.01
2018-12-12T04:11:22.015Z,1007.98
2018-12-12T04:12:21.998Z,1008.00
2018-12-12T04:13:21.983Z,1007.96
2018-12-12T04:14:21.968Z,1007.93
2018-12-12T04:15:21.953Z,1007.93
2018-12-12T04:16:21.937Z,1007.93
2018-12-12T04:17:21.921Z,1007.93
2018-12-12T04:18:21.916Z,1007.91
2018-12-12T04:19:21.897Z,1007.99
2018-12-12T04:20:21.877Z,1007.95
2018-12-12T04:21:21.862Z,1007.92
2018-12-12T04:22:21.847Z,1007.96
2018-12-12T04:23:21.834Z,1007.98
2018-12-12T04:24:21.816Z,1008.00
2018-12-12T04:25:21.803Z,1008.04
2018-12-12T04:26:21.786Z,1008.06
2018-12-12T04:27:21.773Z,1008.08
2018-12-12T04:28:21.757Z,1008.10
2018-12-12T04:29:21.742Z,1008.08
2018-12-12T04:30:21.727Z,1008.09
2018-12-12T04:31:21.712Z,1008.11
2018-12-12T04:32:21.697Z,1008.08
2018-12-12T04:33:21.682Z,1008.07
2018-12-12T04:34:21.667Z,1008.07
2018-12-12T04:35:21.652Z,1008.07
2018-12-12T04:36:21.637Z,1008.04
2018-12-12T04:37:21.621Z,1008.06
2018-12-12T04:38:21.609Z,1008.01
2018-12-12T04:39:21.593Z,1008.02
2018-12-12T04:40:21.575Z,1008.01
2018-12-12T04:41:21.561Z,1008.00
2018-12-12T04:42:21.546Z,1007.97
2018-12-12T04:43:21.532Z,1007.97
2018-12-12T04:44:21.517Z,1008.00
2018-12-12T04:45:21.501Z,1007.95
2018-12-12T04:46:21.489Z,1007.97
2018-12-12T04:47:21.484Z,1007.93
2018-12-12T04:48:21.455Z,1007.98
2018-12-12T04:49:21.440Z,1007.97
2018-12-12T04:50:21.428Z,1007.98
2018-12-12T04:51:21.413Z,1007.97
2018-12-12T04:52:21.399Z,1008.00
2018-12-12T04:53:21.380Z,1008.02
2018-12-12T04:54:21.367Z,1008.04
2018-12-12T04:55:21.351Z,1008.04
2018-12-12T04:56:21.337Z,1008.02
2018-12-12T04:57:21.320Z,1008.06
2018-12-12T04:58:21.308Z,1008.04
2018-12-12T04:59:21.295Z,1008.02
2018-12-12T05:00:21.275Z,1008.07
2018-12-12T05:01:21.260Z,1008.05
2018-12-12T05:02:21.246Z,1008.04
2018-12-12T05:03:21.230Z,1008.07
2018-12-12T05:04:21.214Z,1008.01
2018-12-12T05:05:21.199Z,1008.04
2018-12-12T05:06:21.186Z,1008.05
2018-12-12T05:07:21.171Z,1008.03
2018-12-12T05:08:21.154Z,1008.02
2018-12-12T05:09:21.140Z,1008.00
2018-12-12T05:10:21.125Z,1008.00
2018-12-12T05:11:21.112Z,1007.96
2018-12-12T05:12:21.099Z,1007.98
2018-12-12T05:13:21.080Z,1007.96
2018-12-12T05:14:21.065Z,1007.99
2018-12-12T05:15:21.054Z,1007.97
2018-12-12T05:16:21.038Z,1007.96
2018-12-12T05:17:21.022Z,1007.99
2018-12-12T05:18:21.007Z,1007.95
2018-12-12T05:19:20.993Z,1008.02
2018-12-12T05:20:20.982Z,1007.97
2018-12-12T05:21:20.970Z,1007.99
2018-12-12T05:22:20.949Z,1008.02
2018-12-12T05:23:20.934Z,1008.00
2018-12-12T05:24:20.918Z,1007.98
2018-12-12T05:25:20.904Z,1007.97
2018-12-12T05:26:20.890Z,1007.97
2018-12-12T05:27:20.876Z,1008.00
2018-12-12T05:28:20.861Z,1007.95
2018-12-12T05:29:20.848Z,1007.99
2018-12-12T05:30:20.832Z,1007.96
2018-12-12T05:31:20.818Z,1007.97
2018-12-12T05:32:20.809Z,1008.04
2018-12-12T05:33:20.791Z,1008.04
2018-12-12T05:34:20.773Z,1008.04
2018-12-12T05:35:20.761Z,1008.04
2018-12-12T05:36:20.744Z,1008.05
2018-12-12T05:37:20.729Z,1008.04
2018-12-12T05:38:20.717Z,1008.00
2018-12-12T05:39:20.706Z,1008.02
2018-12-12T05:40:20.688Z,1007.96
2018-12-12T05:41:20.673Z,1008.00
2018-12-12T05:42:20.658Z,1008.03
2018-12-12T05:43:20.647Z,1008.04
2018-12-12T05:44:20.627Z,1008.09
2018-12-12T05:45:20.614Z,1008.10
2018-12-12T05:46:20.599Z,1008.09
2018-12-12T05:47:20.585Z,1008.06
2018-12-12T05:48:20.571Z,1008.08
2018-12-12T05:49:20.555Z,1008.05
2018-12-12T05:50:20.542Z,1008.06
2018-12-12T05:51:20.527Z,1008.11
2018-12-12T05:52:20.514Z,1008.07
2018-12-12T05:53:20.499Z,1008.13
2018-12-12T05:54:20.483Z,1008.11
2018-12-12T05:55:20.469Z,1008.09
2018-12-12T05:56:20.454Z,1008.12
2018-12-12T05:57:20.442Z,1008.16
2018-12-12T05:58:20.432Z,1008.15
2018-12-12T05:59:20.412Z,1008.12
2018-12-12T06:00:20.399Z,1008.15
2018-12-12T06:01:20.384Z,1008.15
2018-12-12T06:02:20.369Z,1008.15
2018-12-12T06:03:20.355Z,1008.20
2018-12-12T06:04:20.340Z,1008.17
2018-12-12T06:05:20.326Z,1008.17
2018-12-12T06:06:20.311Z,1008.18
2018-12-12T06:07:20.299Z,1008.19
2018-12-12T06:08:20.284Z,1008.21
2018-12-12T06:09:20.269Z,1008.22
2018-12-12T06:10:20.254Z,1008.26
2018-12-12T06:11:20.240Z,1008.29
2018-12-12T06:12:20.226Z,1008.27
2018-12-12T06:13:20.211Z,1008.29
2018-12-12T06:14:20.196Z,1008.25
2018-12-12T06:15:20.183Z,1008.26
2018-12-12T06:16:20.167Z,1008.25
2018-12-12T06:17:20.153Z,1008.22
2018-12-12T06:18:20.139Z,1008.26
2018-12-12T06:19:20.126Z,1008.24
2018-12-12T06:20:20.112Z,1008.25
2018-12-12T06:21:20.096Z,1008.23
2018-12-12T06:22:20.083Z,1008.29
2018-12-12T06:23:20.072Z,1008.32
2018-12-12T06:24:20.053Z,1008.29
2018-12-12T06:25:20.039Z,1008.29
2018-12-12T06:26:20.025Z,1008.32
2018-12-12T06:27:20.010Z,1008.30
2018-12-12T06:28:19.995Z,1008.33
2018-12-12T06:29:19.981Z,1008.34
2018-12-12T06:30:19.967Z,1008.34
2018-12-12T06:31:19.955Z,1008.34
2018-12-12T06:32:19.938Z,1008.36
2018-12-12T06:33:19.924Z,1008.39
2018-12-12T06:34:19.910Z,1008.39
2018-12-12T06:35:19.900Z,1008.41
2018-12-12T06:36:20.530Z,1008.41
2018-12-12T06:37:19.867Z,1008.40
2018-12-12T06:38:19.855Z,1008.43
2018-12-12T06:39:19.840Z,1008.41
2018-12-12T06:40:19.824Z,1008.46
2018-12-12T06:41:19.810Z,1008.43
2018-12-12T06:42:19.797Z,1008.41
2018-12-12T06:43:19.786Z,1008.44
2018-12-12T06:44:19.768Z,1008.45
2018-12-12T06:45:19.754Z,1008.44
2018-12-12T06:46:19.741Z,1008.48
2018-12-12T06:47:19.728Z,1008.49
2018-12-12T06:48:19.714Z,1008.49
2018-12-12T06:49:19.700Z,1008.50
2018-12-12T06:50:19.684Z,1008.52
2018-12-12T06:51:19.672Z,1008.52
2018-12-12T06:52:19.658Z,1008.50
2018-12-12T06:53:19.642Z,1008.56
2018-12-12T06:54:19.630Z,1008.52
2018-12-12T06:55:19.616Z,1008.52
2018-12-12T06:56:19.600Z,1008.52
2018-12-12T06:57:19.588Z,1008.54
2018-12-12T06:58:19.573Z,1008.54
2018-12-12T06:59:19.563Z,1008.56
2018-12-12T07:00:19.546Z,1008.54
2018-12-12T07:01:19.531Z,1008.53
2018-12-12T07:02:19.519Z,1008.55
2018-12-12T07:03:20.255Z,1008.53
2018-12-12T07:04:19.490Z,1008.56
2018-12-12T07:05:19.476Z,1008.56
2018-12-12T07:06:19.462Z,1008.52
2018-12-12T07:07:19.448Z,1008.52
2018-12-12T07:08:19.434Z,1008.49
2018-12-12T07:09:19.425Z,1008.48
2018-12-12T07:10:19.410Z,1008.47
2018-12-12T07:11:19.394Z,1008.48
2018-12-12T07:12:19.380Z,1008.46
2018-12-12T07:13:19.365Z,1008.47
2018-12-12T07:14:19.358Z,1008.48
2018-12-12T07:15:19.344Z,1008.54
2018-12-12T07:16:19.323Z,1008.54
2018-12-12T07:17:19.308Z,1008.52
2018-12-12T07:18:19.294Z,1008.49
2018-12-12T07:19:19.282Z,1008.46
2018-12-12T07:20:19.269Z,1008.45
2018-12-12T07:21:19.252Z,1008.46
2018-12-12T07:22:19.240Z,1008.46
2018-12-12T07:23:19.226Z,1008.46
2018-12-12T07:24:19.213Z,1008.45
2018-12-12T07:25:19.198Z,1008.47
2018-12-12T07:26:19.185Z,1008.46
2018-12-12T07:27:19.170Z,1008.45
2018-12-12T07:28:19.156Z,1008.48
2018-12-12T07:29:19.149Z,1008.46
2018-12-12T07:30:19.129Z,1008.50
2018-12-12T07:31:19.114Z,1008.52
2018-12-12T07:32:19.103Z,1008.53
2018-12-12T07:33:19.091Z,1008.56
2018-12-12T07:34:20.289Z,1008.54
2018-12-12T07:35:19.067Z,1008.56
2018-12-12T07:36:19.045Z,1008.52
2018-12-12T07:37:19.031Z,1008.53
2018-12-12T07:38:19.018Z,1008.54
2018-12-12T07:39:19.003Z,1008.57
2018-12-12T07:40:18.989Z,1008.61
2018-12-12T07:41:18.975Z,1008.58
2018-12-12T07:42:18.963Z,1008.60
2018-12-12T07:43:18.952Z,1008.59
2018-12-12T07:44:18.934Z,1008.57
2018-12-12T07:45:18.923Z,1008.56
2018-12-12T07:46:18.907Z,1008.57
2018-12-12T07:47:18.897Z,1008.59
2018-12-12T07:48:18.878Z,1008.59
2018-12-12T07:49:18.866Z,1008.62
2018-12-12T07:50:18.850Z,1008.63
2018-12-12T07:51:18.838Z,1008.61
2018-12-12T07:52:18.823Z,1008.65
2018-12-12T07:53:18.813Z,1008.67
2018-12-12T07:54:18.795Z,1008.65
2018-12-12T07:55:18.786Z,1008.67
2018-12-12T07:56:18.771Z,1008.68
2018-12-12T07:57:18.757Z,1008.67
2018-12-12T07:58:18.741Z,1008.71
2018-12-12T07:59:18.728Z,1008.71
2018-12-12T08:00:18.716Z,1008.75
2018-12-12T08:01:18.703Z,1008.75
2018-12-12T08:02:18.690Z,1008.72
2018-12-12T08:03:18.674Z,1008.75
2018-12-12T08:04:18.659Z,1008.76
2018-12-12T08:05:18.651Z,1008.76
2018-12-12T08:06:18.631Z,1008.74
2018-12-12T08:07:18.821Z,1008.74
2018-12-12T08:08:18.606Z,1008.75
2018-12-12T08:09:18.592Z,1008.72
2018-12-12T08:10:18.578Z,1008.75
2018-12-12T08:11:18.563Z,1008.78
2018-12-12T08:12:18.555Z,1008.82
2018-12-12T08:13:18.540Z,1008.82
2018-12-12T08:14:18.523Z,1008.83
2018-12-12T08:15:18.511Z,1008.80
2018-12-12T08:16:18.497Z,1008.86
2018-12-12T08:17:18.482Z,1008.82
2018-12-12T08:18:18.468Z,1008.84
2018-12-12T08:19:18.455Z,1008.86
2018-12-12T08:20:18.440Z,1008.84
2018-12-12T08:21:18.430Z,1008.88
2018-12-12T08:22:18.414Z,1008.89
2018-12-12T08:23:18.403Z,1008.91
2018-12-12T08:24:18.386Z,1008.92
2018-12-12T08:25:18.374Z,1008.91
2018-12-12T08:26:18.359Z,1008.88
2018-12-12T08:27:18.348Z,1008.91
2018-12-12T08:28:18.339Z,1008.96
2018-12-12T08:29:18.319Z,1008.93
2018-12-12T08:30:18.310Z,1009.01
2018-12-12T08:31:18.296Z,1008.98
2018-12-12T08:32:18.280Z,1008.97
2018-12-12T08:33:18.264Z,1008.90
2018-12-12T08:34:18.255Z,1008.93
2018-12-12T08:35:18.241Z,1008.95
2018-12-12T08:36:18.224Z,1008.93
2018-12-12T08:37:18.212Z,1008.95
2018-12-12T08:38:18.198Z,1008.96
2018-12-12T08:39:18.189Z,1008.99
2018-12-12T08:40:18.173Z,1008.98
2018-12-12T08:41:18.161Z,1008.97
2018-12-12T08:42:18.148Z,1009.01
2018-12-12T08:43:18.132Z,1009.02
2018-12-12T08:44:18.321Z,1009.03
2018-12-12T08:45:18.107Z,1009.04
2018-12-12T08:46:18.090Z,1009.01
2018-12-12T08:47:18.081Z,1009.03
2018-12-12T08:48:18.064Z,1009.07
2018-12-12T08:49:18.051Z,1009.09
2018-12-12T08:50:18.038Z,1009.08
2018-12-12T08:51:18.024Z,1009.09
2018-12-12T08:52:18.011Z,1009.11
2018-12-12T08:53:18.000Z,1009.14
2018-12-12T08:54:17.984Z,1009.13
2018-12-12T08:55:18.067Z,1009.13
2018-12-12T08:56:17.957Z,1009.11
2018-12-12T08:57:17.943Z,1009.11
2018-12-12T08:58:17.933Z,1009.10
2018-12-12T08:59:17.925Z,1009.16
2018-12-12T09:00:17.905Z,1009.15
2018-12-12T09:01:17.889Z,1009.18
2018-12-12T09:02:17.877Z,1009.20
2018-12-12T09:03:17.895Z,1009.21
2018-12-12T09:04:17.856Z,1009.19
2018-12-12T09:05:17.840Z,1009.18
2018-12-12T09:06:17.824Z,1009.16
2018-12-12T09:07:18.073Z,1009.15
2018-12-12T09:08:17.799Z,1009.18
2018-12-12T09:09:17.785Z,1009.17
2018-12-12T09:10:17.771Z,1009.16
2018-12-12T09:11:17.759Z,1009.18
2018-12-12T09:12:17.746Z,1009.14
2018-12-12T09:13:17.731Z,1009.16
2018-12-12T09:14:17.719Z,1009.14
2018-12-12T09:15:17.705Z,1009.16
2018-12-12T09:16:17.693Z,1009.19
2018-12-12T09:17:17.680Z,1009.18
2018-12-12T09:18:17.666Z,1009.22
2018-12-12T09:19:17.656Z,1009.15
2018-12-12T09:20:17.639Z,1009.16
2018-12-12T09:21:17.628Z,1009.17
2018-12-12T09:22:17.622Z,1009.17
2018-12-12T09:23:17.605Z,1009.19
2018-12-12T09:24:17.588Z,1009.17
2018-12-12T09:25:17.779Z,1009.15
2018-12-12T09:26:17.566Z,1009.09
2018-12-12T09:27:17.560Z,1009.11
2018-12-12T09:28:17.540Z,1009.09
2018-12-12T09:29:17.531Z,1009.18
2018-12-12T09:30:17.516Z,1009.16
2018-12-12T09:31:17.502Z,1009.18
2018-12-12T09:32:17.484Z,1009.17
2018-12-12T09:33:24.417Z,1009.18
2018-12-12T09:34:17.461Z,1009.20
2018-12-12T09:35:17.449Z,1009.19
2018-12-12T09:36:17.437Z,1009.17
2018-12-12T09:37:17.485Z,1009.14
2018-12-12T09:38:17.409Z,1009.17
2018-12-12T09:39:17.395Z,1009.19
2018-12-12T09:40:17.386Z,1009.20
2018-12-12T09:41:17.372Z,1009.13
2018-12-12T09:42:17.357Z,1009.13
2018-12-12T09:43:17.349Z,1009.12
2018-12-12T09:44:17.332Z,1009.13
2018-12-12T09:45:21.694Z,1009.15
2018-12-12T09:46:17.307Z,1009.11
2018-12-12T09:47:17.297Z,1009.15
2018-12-12T09:48:19.644Z,1009.12
2018-12-12T09:49:17.270Z,1009.14
2018-12-12T09:50:17.259Z,1009.12
2018-12-12T09:51:17.244Z,1009.14
2018-12-12T09:52:17.231Z,1009.17
2018-12-12T09:53:17.217Z,1009.17
2018-12-12T09:54:17.210Z,1009.15
2018-12-12T09:55:17.194Z,1009.17
2018-12-12T09:56:17.179Z,1009.17
2018-12-12T09:57:17.167Z,1009.17
2018-12-12T09:58:17.154Z,1009.13
2018-12-12T09:59:17.142Z,1009.11
2018-12-12T10:00:17.133Z,1009.12
2018-12-12T10:01:17.117Z,1009.16
2018-12-12T10:02:17.106Z,1009.13
2018-12-12T10:03:17.093Z,1009.12
2018-12-12T10:04:17.089Z,1009.15
2018-12-12T10:05:17.069Z,1009.13
2018-12-12T10:06:17.061Z,1009.08
2018-12-12T10:07:17.047Z,1009.05
2018-12-12T10:08:17.037Z,1009.07
2018-12-12T10:09:17.021Z,1009.04
2018-12-12T10:10:17.008Z,1009.08
2018-12-12T10:11:16.996Z,1009.08
2018-12-12T10:12:16.982Z,1009.06
2018-12-12T10:13:16.970Z,1009.13
2018-12-12T10:14:16.963Z,1009.09
2018-12-12T10:15:16.946Z,1009.11
2018-12-12T10:16:16.932Z,1009.10
2018-12-12T10:17:16.919Z,1009.15
2018-12-12T10:18:16.908Z,1009.12
2018-12-12T10:19:16.895Z,1009.10
2018-12-12T10:20:16.883Z,1009.09
2018-12-12T10:21:16.870Z,1009.07
2018-12-12T10:22:16.858Z,1009.08
2018-12-12T10:23:16.847Z,1009.06
2018-12-12T10:24:16.833Z,1009.03
2018-12-12T10:25:17.022Z,1009.07
2018-12-12T10:26:16.809Z,1009.03
2018-12-12T10:27:16.795Z,1009.05
2018-12-12T10:28:16.786Z,1009.05
2018-12-12T10:29:16.775Z,1009.05
2018-12-12T10:30:16.758Z,1009.04
2018-12-12T10:31:16.748Z,1009.09
2018-12-12T10:32:16.734Z,1009.06
2018-12-12T10:33:16.723Z,1009.06
2018-12-12T10:34:16.708Z,1009.04
2018-12-12T10:35:16.904Z,1009.04
2018-12-12T10:36:16.686Z,1009.00
2018-12-12T10:37:16.673Z,1008.99
2018-12-12T10:38:16.659Z,1008.99
2018-12-12T10:39:16.648Z,1008.98
2018-12-12T10:40:16.633Z,1008.99
2018-12-12T10:41:16.622Z,1009.04
2018-12-12T10:42:16.616Z,1008.98
2018-12-12T10:43:16.600Z,1009.00
2018-12-12T10:44:16.585Z,1008.98
2018-12-12T10:45:16.578Z,1008.98
2018-12-12T10:46:16.560Z,1008.93
2018-12-12T10:47:16.549Z,1008.93
2018-12-12T10:48:16.534Z,1008.90
2018-12-12T10:49:16.525Z,1008.91
2018-12-12T10:50:16.516Z,1008.88
2018-12-12T10:51:16.505Z,1008.92
2018-12-12T10:52:16.489Z,1008.92
2018-12-12T10:53:16.477Z,1008.92
2018-12-12T10:54:16.466Z,1008.89
2018-12-12T10:55:16.453Z,1008.94
2018-12-12T10:56:16.444Z,1008.91
2018-12-12T10:57:16.430Z,1008.89
2018-12-12T10:58:16.417Z,1008.90
2018-12-12T10:59:16.413Z,1008.85
2018-12-12T11:00:16.395Z,1008.82
2018-12-12T11:01:16.383Z,1008.83
2018-12-12T11:02:16.372Z,1008.83
2018-12-12T11:03:16.370Z,1008.82
2018-12-12T11:04:16.354Z,1008.82
2018-12-12T11:05:16.343Z,1008.81
2018-12-12T11:06:16.328Z,1008.81
2018-12-12T11:07:16.321Z,1008.81
2018-12-12T11:08:16.308Z,1008.78
2018-12-12T11:09:16.301Z,1008.85
2018-12-12T11:10:16.286Z,1008.81
2018-12-12T11:11:16.276Z,1008.77
2018-12-12T11:12:16.265Z,1008.76
2018-12-12T11:13:16.259Z,1008.74
2018-12-12T11:14:16.245Z,1008.72
2018-12-12T11:15:16.237Z,1008.75
2018-12-12T11:16:16.229Z,1008.72
2018-12-12T11:17:16.215Z,1008.70
2018-12-12T11:18:16.206Z,1008.69
2018-12-12T11:19:16.191Z,1008.68
2018-12-12T11:20:16.179Z,1008.71
2018-12-12T11:21:16.170Z,1008.68
2018-12-12T11:22:16.160Z,1008.74
2018-12-12T11:23:16.154Z,1008.73
2018-12-12T11:24:16.139Z,1008.69
2018-12-12T11:25:16.128Z,1008.72
2018-12-12T11:26:16.116Z,1008.68
2018-12-12T11:27:16.106Z,1008.71
2018-12-12T11:28:16.094Z,1008.73
2018-12-12T11:29:16.084Z,1008.75
2018-12-12T11:30:16.073Z,1008.74
2018-12-12T11:31:16.064Z,1008.70
2018-12-12T11:32:16.056Z,1008.68
2018-12-12T11:33:16.040Z,1008.67
2018-12-12T11:34:16.030Z,1008.67
2018-12-12T11:35:16.018Z,1008.68
2018-12-12T11:36:16.005Z,1008.71
2018-12-12T11:37:15.995Z,1008.65
2018-12-12T11:38:15.985Z,1008.69
2018-12-12T11:39:15.974Z,1008.70
2018-12-12T11:40:15.961Z,1008.67
2018-12-12T11:41:15.951Z,1008.66
2018-12-12T11:42:15.939Z,1008.66
2018-12-12T11:43:15.929Z,1008.62
2018-12-12T11:44:15.916Z,1008.60
2018-12-12T11:45:15.906Z,1008.63
2018-12-12T11:46:15.893Z,1008.59
2018-12-12T11:47:15.882Z,1008.60
2018-12-12T11:48:15.872Z,1008.58
2018-12-12T11:49:15.859Z,1008.56
2018-12-12T11:50:15.897Z,1008.58
2018-12-12T11:51:15.835Z,1008.55
2018-12-12T11:52:15.823Z,1008.56
2018-12-12T11:53:15.816Z,1008.55
2018-12-12T11:54:15.818Z,1008.55
2018-12-12T11:55:15.839Z,1008.59
2018-12-12T11:56:15.780Z,1008.62
2018-12-12T11:57:15.768Z,1008.57
2018-12-12T11:58:15.753Z,1008.54
2018-12-12T11:59:15.742Z,1008.56
2018-12-12T12:00:15.734Z,1008.57
2018-12-12T12:01:15.718Z,1008.53
2018-12-12T12:02:15.707Z,1008.53
2018-12-12T12:03:15.695Z,1008.51
2018-12-12T12:04:15.885Z,1008.50
2018-12-12T12:05:15.671Z,1008.48